Time;durP1;ratioP1;P1;durP2;ratioP2;P2;SDS_P1;SDS_P2;PMS_P1;PMS_P2;Temp;Humidity;BMP_temperature;BMP_pressure;BME280_temperature;BME280_humidity;BME280_pressure;Samples;Min_cycle;Max_cycle;Signal;HPM_P1;HPM_P2
2023/06/01 00:00:30;;;;;;;15.07;5.75;;;11.40;99.90;;;;;;4908053;29;20031;-87
2023/06/01 00:02:56;;;;;;;15.45;5.82;;;11.40;99.90;;;;;;4916400;29;20036;-87
2023/06/01 00:05:22;;;;;;;13.02;5.10;;;11.40;99.90;;;;;;4907642;29;20208;-86
2023/06/01 00:07:47;;;;;;;15.88;5.85;;;11.30;99.90;;;;;;4903262;29;20148;-87
2023/06/01 00:10:13;;;;;;;13.05;4.90;;;11.30;99.90;;;;;;4898841;29;20053;-87
2023/06/01 00:12:39;;;;;;;14.35;5.55;;;11.30;99.90;;;;;;4899406;29;20413;-87
2023/06/01 00:15:05;;;;;;;15.48;5.43;;;11.30;99.90;;;;;;4901163;29;20056;-87
2023/06/01 00:17:32;;;;;;;15.60;5.28;;;11.30;99.90;;;;;;4899769;29;20037;-86
2023/06/01 00:20:00;;;;;;;14.05;4.93;;;11.30;99.90;;;;;;4898694;29;20052;-87
2023/06/01 00:22:33;;;;;;;13.30;4.70;;;11.30;99.90;;;;;;4898389;29;20060;-87
2023/06/01 00:25:00;;;;;;;13.75;4.95;;;11.20;99.90;;;;;;4899286;29;20056;-87
2023/06/01 00:27:25;;;;;;;16.25;5.00;;;11.20;99.90;;;;;;4898154;29;20049;-87
2023/06/01 00:29:51;;;;;;;16.30;4.90;;;11.30;99.90;;;;;;4899882;29;20059;-86
2023/06/01 00:32:16;;;;;;;14.23;5.00;;;11.90;99.90;;;;;;4897435;29;20131;-86
2023/06/01 00:34:42;;;;;;;16.63;5.03;;;11.20;99.90;;;;;;4899700;29;20396;-87
2023/06/01 00:37:08;;;;;;;13.90;5.03;;;11.20;99.90;;;;;;4898355;29;20457;-87
2023/06/01 00:39:33;;;;;;;13.68;5.28;;;12.00;99.90;;;;;;4897001;29;20064;-87
2023/06/01 00:41:59;;;;;;;17.02;5.18;;;11.20;99.90;;;;;;4899789;29;20055;-87
2023/06/01 00:44:24;;;;;;;15.75;5.13;;;12.10;99.90;;;;;;4899045;29;20103;-87
2023/06/01 00:46:51;;;;;;;14.32;5.50;;;11.30;99.90;;;;;;4897473;29;20566;-86
2023/06/01 00:49:17;;;;;;;14.18;5.30;;;11.20;99.90;;;;;;4899020;29;20493;-87
2023/06/01 00:51:43;;;;;;;15.73;5.40;;;12.00;99.90;;;;;;4897910;29;20044;-87
2023/06/01 00:54:08;;;;;;;14.95;6.43;;;11.30;99.90;;;;;;4896954;29;20115;-86
2023/06/01 00:56:36;;;;;;;14.75;5.38;;;11.20;99.90;;;;;;4899414;29;20052;-86
2023/06/01 00:59:02;;;;;;;13.73;5.00;;;11.20;99.90;;;;;;4898129;29;20093;-87
2023/06/01 01:01:27;;;;;;;13.57;4.47;;;11.20;99.90;;;;;;4896873;29;20079;-87
2023/06/01 01:04:00;;;;;;;14.02;5.07;;;11.20;99.90;;;;;;4898097;29;20046;-86
2023/06/01 01:06:48;;;;;;;17.25;5.35;;;11.10;99.90;;;;;;4897095;29;20092;-86
2023/06/01 01:09:22;;;;;;;14.60;5.38;;;11.10;99.90;;;;;;4898655;29;20048;-87
2023/06/01 01:12:14;;;;;;;15.70;5.72;;;11.10;99.90;;;;;;4897755;29;20056;-86
2023/06/01 01:14:44;;;;;;;14.35;5.38;;;12.10;99.90;;;;;;4898078;29;20053;-87
2023/06/01 01:17:26;;;;;;;16.30;5.10;;;11.10;99.90;;;;;;4898673;29;20055;-86
2023/06/01 01:19:57;;;;;;;16.23;5.38;;;11.30;99.90;;;;;;4899132;29;20045;-86
2023/06/01 01:22:38;;;;;;;16.20;5.38;;;11.10;99.90;;;;;;4897975;29;20100;-86
2023/06/01 01:25:28;;;;;;;12.70;4.85;;;11.20;99.90;;;;;;4898568;29;20052;-87
2023/06/01 01:28:27;;;;;;;14.63;5.68;;;11.10;99.90;;;;;;4896613;29;20076;-87
2023/06/01 01:30:55;;;;;;;14.85;5.18;;;11.10;99.90;;;;;;4898477;29;20422;-87
2023/06/01 01:33:21;;;;;;;13.88;5.15;;;11.10;99.90;;;;;;4896872;29;20048;-87
2023/06/01 01:35:49;;;;;;;15.43;5.68;;;11.20;99.90;;;;;;4898149;29;20493;-87
2023/06/01 01:38:15;;;;;;;17.33;5.78;;;11.20;99.90;;;;;;4897381;29;20481;-87
2023/06/01 01:40:40;;;;;;;18.75;5.63;;;10.90;99.90;;;;;;4898391;29;20124;-87
2023/06/01 01:43:06;;;;;;;14.68;5.35;;;11.20;99.90;;;;;;4897713;29;20408;-86
2023/06/01 01:45:32;;;;;;;15.57;5.47;;;11.20;99.90;;;;;;4900315;29;20500;-87
2023/06/01 01:48:22;;;;;;;15.75;6.35;;;11.70;99.90;;;;;;4897269;29;20041;-87
2023/06/01 01:51:09;;;;;;;14.13;5.72;;;11.20;99.90;;;;;;4896362;29;20067;-86
2023/06/01 01:53:38;;;;;;;13.20;5.50;;;11.20;99.90;;;;;;4898403;29;20059;-87
2023/06/01 01:56:06;;;;;;;15.40;5.80;;;11.20;99.90;;;;;;4896450;29;20089;-87
2023/06/01 01:58:33;;;;;;;17.27;5.90;;;11.20;99.90;;;;;;4898068;29;20048;-87
2023/06/01 02:00:59;;;;;;;14.25;5.50;;;11.20;99.90;;;;;;4898175;29;20040;-87
2023/06/01 02:03:25;;;;;;;17.35;5.93;;;12.20;99.90;;;;;;4895728;29;20051;-87
2023/06/01 02:05:50;;;;;;;16.67;6.00;;;11.20;99.90;;;;;;4896319;29;20461;-87
2023/06/01 02:08:16;;;;;;;15.55;6.00;;;11.20;99.90;;;;;;4896777;29;20060;-87
2023/06/01 02:10:41;;;;;;;14.77;5.50;;;11.20;99.90;;;;;;4897022;29;20051;-87
2023/06/01 02:13:09;;;;;;;18.70;7.00;;;11.70;99.90;;;;;;4896801;29;20584;-87
2023/06/01 02:15:35;;;;;;;18.08;5.80;;;11.20;99.90;;;;;;4896865;29;20140;-87
2023/06/01 02:18:02;;;;;;;17.23;6.22;;;12.20;99.90;;;;;;4897094;29;20521;-87
2023/06/01 02:20:27;;;;;;;15.93;6.03;;;11.20;99.90;;;;;;4896538;29;20083;-87
2023/06/01 02:22:53;;;;;;;16.40;6.30;;;11.20;99.90;;;;;;4898115;29;20087;-87
2023/06/01 02:25:19;;;;;;;18.40;6.10;;;11.30;99.90;;;;;;4895729;29;20056;-87
2023/06/01 02:27:45;;;;;;;19.27;6.82;;;11.20;99.90;;;;;;4897635;29;20053;-87
2023/06/01 02:30:11;;;;;;;17.08;6.72;;;11.20;99.90;;;;;;4897614;29;20045;-85
2023/06/01 02:32:37;;;;;;;14.82;6.03;;;11.20;99.90;;;;;;4895693;29;20412;-85
2023/06/01 02:35:04;;;;;;;17.15;6.15;;;11.20;99.90;;;;;;4897888;29;20128;-86
2023/06/01 02:37:32;;;;;;;14.55;6.40;;;11.20;99.90;;;;;;4896144;29;20087;-85
2023/06/01 02:39:58;;;;;;;16.42;6.03;;;11.20;99.90;;;;;;4895560;29;20053;-86
2023/06/01 02:42:23;;;;;;;14.88;6.20;;;12.10;99.90;;;;;;4896299;29;20119;-86
2023/06/01 02:44:49;;;;;;;15.52;5.90;;;12.10;99.90;;;;;;4896443;29;20130;-85
2023/06/01 02:47:14;;;;;;;13.95;6.45;;;11.80;99.90;;;;;;4897263;29;20056;-86
2023/06/01 02:49:40;;;;;;;15.30;6.47;;;11.20;99.90;;;;;;4896061;29;20055;-85
2023/06/01 02:52:06;;;;;;;17.10;5.65;;;11.10;99.90;;;;;;4896449;29;20045;-85
2023/06/01 02:54:32;;;;;;;14.90;5.95;;;11.10;99.90;;;;;;4897525;29;20093;-86
2023/06/01 02:56:57;;;;;;;17.35;6.30;;;11.10;99.90;;;;;;4897635;29;20076;-86
2023/06/01 02:59:23;;;;;;;16.80;6.10;;;11.40;99.90;;;;;;4895550;29;20044;-87
2023/06/01 03:01:48;;;;;;;14.77;6.15;;;11.10;99.90;;;;;;4903989;29;20060;-86
2023/06/01 03:04:14;;;;;;;17.67;6.45;;;11.10;99.90;;;;;;4919488;29;20508;-87
2023/06/01 03:06:40;;;;;;;15.93;5.63;;;11.10;99.90;;;;;;4909397;29;20041;-87
2023/06/01 03:09:12;;;;;;;18.75;6.55;;;11.40;99.90;;;;;;4904608;29;20044;-86
2023/06/01 03:11:42;;;;;;;17.77;6.35;;;11.10;99.90;;;;;;4902021;29;20087;-86
2023/06/01 03:14:08;;;;;;;14.77;6.15;;;11.00;99.90;;;;;;4901652;29;20045;-86
2023/06/01 03:16:34;;;;;;;15.98;5.57;;;11.90;99.90;;;;;;4902762;29;20120;-86
2023/06/01 03:19:00;;;;;;;16.45;5.28;;;11.00;99.90;;;;;;4899786;29;20075;-86
2023/06/01 03:21:27;;;;;;;14.65;5.63;;;11.00;99.90;;;;;;4900005;29;20131;-86
2023/06/01 03:23:52;;;;;;;15.95;5.60;;;11.00;99.90;;;;;;4899727;29;20393;-86
2023/06/01 03:26:20;;;;;;;15.40;5.20;;;11.00;99.90;;;;;;4899379;29;20048;-86
2023/06/01 03:28:46;;;;;;;14.13;5.03;;;11.60;99.90;;;;;;4898623;29;20080;-86
2023/06/01 03:31:12;;;;;;;15.15;5.18;;;11.10;99.90;;;;;;4899253;29;20140;-86
2023/06/01 03:33:38;;;;;;;13.10;5.38;;;10.90;99.90;;;;;;4899443;29;20053;-86
2023/06/01 03:36:06;;;;;;;15.65;5.32;;;11.10;99.90;;;;;;4898617;29;20095;-86
2023/06/01 03:38:32;;;;;;;15.93;5.80;;;10.90;99.90;;;;;;4952564;23;20063;-86
2023/06/01 03:40:58;;;;;;;16.77;6.07;;;10.90;99.90;;;;;;4899088;29;20049;-86
2023/06/01 03:43:24;;;;;;;14.05;5.43;;;11.60;99.90;;;;;;4898701;29;20048;-86
2023/06/01 03:45:49;;;;;;;13.27;5.40;;;11.70;99.90;;;;;;4899267;29;20044;-86
2023/06/01 03:48:15;;;;;;;13.77;5.80;;;10.80;99.90;;;;;;4899419;29;20084;-86
2023/06/01 03:50:41;;;;;;;16.35;5.57;;;10.90;99.90;;;;;;4899102;29;20049;-86
2023/06/01 03:53:07;;;;;;;16.98;5.30;;;10.90;99.90;;;;;;4900063;29;20127;-86
2023/06/01 03:55:33;;;;;;;18.75;5.55;;;12.00;99.90;;;;;;4899690;29;20051;-86
2023/06/01 03:57:58;;;;;;;15.35;5.95;;;11.50;99.90;;;;;;4899301;29;20052;-86
2023/06/01 04:00:24;;;;;;;16.33;5.25;;;10.90;99.90;;;;;;4898843;29;20505;-86
2023/06/01 04:02:52;;;;;;;13.48;4.85;;;11.70;99.90;;;;;;4897814;29;20044;-86
2023/06/01 04:05:21;;;;;;;15.40;5.55;;;11.60;99.90;;;;;;4897773;29;20416;-86
2023/06/01 04:07:48;;;;;;;12.90;4.57;;;10.90;99.90;;;;;;4896982;29;20069;-86
2023/06/01 04:10:16;;;;;;;14.05;5.32;;;11.50;99.90;;;;;;4898672;29;20512;-86
2023/06/01 04:12:48;;;;;;;14.65;5.13;;;10.90;99.90;;;;;;4899319;29;20045;-86
2023/06/01 04:15:15;;;;;;;13.68;4.70;;;10.90;99.90;;;;;;4898145;29;20048;-86
2023/06/01 04:17:42;;;;;;;14.13;5.15;;;12.10;99.90;;;;;;4898174;29;20045;-85
2023/06/01 04:20:13;;;;;;;14.85;4.88;;;11.20;99.90;;;;;;4898383;29;20409;-86
2023/06/01 04:22:40;;;;;;;11.23;4.53;;;10.90;99.90;;;;;;4900132;29;20049;-86
2023/06/01 04:25:08;;;;;;;14.40;4.78;;;11.50;99.90;;;;;;4897652;29;20127;-87
2023/06/01 04:27:37;;;;;;;14.80;4.85;;;10.90;99.90;;;;;;4900083;29;20052;-86
2023/06/01 04:30:07;;;;;;;14.68;4.43;;;11.00;99.90;;;;;;4898592;29;20597;-86
2023/06/01 04:32:37;;;;;;;15.10;5.03;;;10.90;99.90;;;;;;4897707;29;20488;-86
2023/06/01 04:35:05;;;;;;;12.25;4.80;;;10.90;99.90;;;;;;4900867;29;20108;-87
2023/06/01 04:37:35;;;;;;;12.43;4.45;;;10.90;99.90;;;;;;4897858;29;20104;-86
2023/06/01 04:40:06;;;;;;;16.20;4.55;;;10.90;99.90;;;;;;4900453;29;20040;-86
2023/06/01 04:42:33;;;;;;;15.10;5.13;;;10.90;99.90;;;;;;4898607;29;20143;-86
2023/06/01 04:44:59;;;;;;;15.15;5.22;;;10.90;99.90;;;;;;4900487;29;20052;-87
2023/06/01 04:47:24;;;;;;;14.48;4.55;;;10.90;99.90;;;;;;4899435;29;20051;-86
2023/06/01 04:49:50;;;;;;;13.65;4.85;;;10.90;99.90;;;;;;4898195;29;20132;-86
2023/06/01 04:52:16;;;;;;;13.18;5.03;;;11.00;99.90;;;;;;4897159;29;20052;-86
2023/06/01 04:54:41;;;;;;;13.38;4.45;;;11.00;99.90;;;;;;4899207;29;20044;-86
2023/06/01 04:57:07;;;;;;;14.80;4.68;;;11.00;99.90;;;;;;4899108;29;20052;-86
2023/06/01 04:59:33;;;;;;;12.10;4.70;;;11.00;99.90;;;;;;4898479;29;20049;-85
2023/06/01 05:02:00;;;;;;;12.95;4.35;;;11.20;99.90;;;;;;4897756;29;20047;-86
2023/06/01 05:04:29;;;;;;;12.50;4.38;;;11.00;99.90;;;;;;4898883;29;20055;-86
2023/06/01 05:06:54;;;;;;;11.90;4.47;;;11.00;99.90;;;;;;4898359;29;20036;-86
2023/06/01 05:09:20;;;;;;;11.25;4.10;;;11.00;99.90;;;;;;4897497;29;20104;-86
2023/06/01 05:11:45;;;;;;;11.82;4.43;;;11.00;99.90;;;;;;4899085;29;20478;-86
2023/06/01 05:14:11;;;;;;;11.63;4.00;;;11.00;99.90;;;;;;4896588;29;20052;-86
2023/06/01 05:16:37;;;;;;;11.43;4.50;;;11.90;99.90;;;;;;4898982;29;20044;-86
2023/06/01 05:19:03;;;;;;;15.48;4.15;;;11.00;99.90;;;;;;4897955;29;20124;-87
2023/06/01 05:21:29;;;;;;;10.55;3.88;;;11.00;99.90;;;;;;4897817;29;20044;-86
2023/06/01 05:23:54;;;;;;;11.55;4.53;;;11.00;99.90;;;;;;4897344;29;20188;-87
2023/06/01 05:26:22;;;;;;;12.15;4.55;;;11.40;99.90;;;;;;4898291;29;20080;-85
2023/06/01 05:28:47;;;;;;;10.95;4.45;;;11.80;99.90;;;;;;4897994;29;20049;-86
2023/06/01 05:31:13;;;;;;;14.15;4.43;;;11.00;99.90;;;;;;4897042;29;20428;-86
2023/06/01 05:33:39;;;;;;;12.13;4.50;;;11.00;99.90;;;;;;4897742;29;20071;-86
2023/06/01 05:36:07;;;;;;;10.75;4.15;;;11.00;99.90;;;;;;4898516;29;20040;-87
2023/06/01 05:38:33;;;;;;;11.80;4.22;;;11.00;99.90;;;;;;4896787;29;20067;-86
2023/06/01 05:41:01;;;;;;;13.60;4.30;;;11.60;99.90;;;;;;4897631;29;20409;-86
2023/06/01 05:43:26;;;;;;;11.57;4.55;;;11.10;99.90;;;;;;4896664;29;20453;-86
2023/06/01 05:45:52;;;;;;;13.25;4.30;;;11.10;99.90;;;;;;4898396;29;20044;-85
2023/06/01 05:48:18;;;;;;;11.63;4.45;;;11.10;99.90;;;;;;4897298;29;20059;-86
2023/06/01 05:50:44;;;;;;;11.25;4.38;;;11.10;99.90;;;;;;4897928;29;20088;-85
2023/06/01 05:53:09;;;;;;;12.20;4.30;;;11.10;99.90;;;;;;4896742;29;20041;-86
2023/06/01 05:55:35;;;;;;;13.55;4.35;;;11.10;99.90;;;;;;4896011;29;20100;-85
2023/06/01 05:58:01;;;;;;;14.10;4.82;;;11.20;99.90;;;;;;4896762;29;20047;-86
2023/06/01 06:00:27;;;;;;;14.15;5.10;;;11.80;99.90;;;;;;4896756;29;20466;-86
2023/06/01 06:02:52;;;;;;;11.75;4.90;;;11.20;99.90;;;;;;4900975;29;20044;-86
2023/06/01 06:05:18;;;;;;;12.75;4.85;;;11.20;99.90;;;;;;4907484;29;20111;-86
2023/06/01 06:07:43;;;;;;;14.25;4.78;;;11.40;99.90;;;;;;4898029;29;20493;-86
2023/06/01 06:10:12;;;;;;;14.07;5.10;;;11.20;99.90;;;;;;4896559;29;20129;-86
2023/06/01 06:12:41;;;;;;;14.35;5.28;;;11.20;99.90;;;;;;4898100;29;20412;-87
2023/06/01 06:15:09;;;;;;;11.23;4.88;;;11.90;99.90;;;;;;4899893;29;20044;-86
2023/06/01 06:17:35;;;;;;;13.70;5.00;;;11.20;99.90;;;;;;4896089;29;20442;-86
2023/06/01 06:20:00;;;;;;;12.82;5.13;;;11.20;99.90;;;;;;4898114;29;20047;-86
2023/06/01 06:22:26;;;;;;;18.77;5.80;;;11.70;99.90;;;;;;4896843;29;20056;-86
2023/06/01 06:24:52;;;;;;;15.55;5.95;;;11.30;99.90;;;;;;4896432;29;20058;-86
2023/06/01 06:27:17;;;;;;;17.90;5.88;;;11.30;99.90;;;;;;4896513;29;20056;-86
2023/06/01 06:29:43;;;;;;;14.43;5.35;;;11.30;99.90;;;;;;4896370;29;20079;-86
2023/06/01 06:32:09;;;;;;;14.82;4.97;;;12.40;99.90;;;;;;4896877;29;20045;-86
2023/06/01 06:34:37;;;;;;;13.65;5.22;;;11.30;99.90;;;;;;4897933;29;20127;-86
2023/06/01 06:37:06;;;;;;;12.57;5.05;;;11.40;99.90;;;;;;4897341;29;20048;-86
2023/06/01 06:39:32;;;;;;;15.32;5.45;;;11.50;99.90;;;;;;4901851;29;20112;-87
2023/06/01 06:41:58;;;;;;;14.10;4.68;;;11.40;99.90;;;;;;4900269;29;20566;-85
2023/06/01 06:44:23;;;;;;;13.65;4.55;;;11.50;99.90;;;;;;4900713;29;20045;-86
2023/06/01 06:46:49;;;;;;;12.55;4.15;;;11.60;99.90;;;;;;4900423;29;20139;-86
2023/06/01 06:49:15;;;;;;;9.35;3.72;;;11.70;99.90;;;;;;4901185;29;20072;-86
2023/06/01 06:51:43;;;;;;;10.32;4.13;;;11.60;99.90;;;;;;4900617;29;20386;-86
2023/06/01 06:54:12;;;;;;;9.43;4.03;;;12.50;99.90;;;;;;4901105;29;20052;-86
2023/06/01 06:56:38;;;;;;;9.52;3.55;;;11.60;99.90;;;;;;4899878;29;20064;-85
2023/06/01 06:59:03;;;;;;;10.23;3.75;;;11.60;99.90;;;;;;4900635;29;20051;-86
2023/06/01 07:01:29;;;;;;;11.70;3.75;;;11.60;99.90;;;;;;4901118;29;20388;-81
2023/06/01 07:03:55;;;;;;;10.85;3.78;;;11.60;99.90;;;;;;4899569;29;20101;-81
2023/06/01 07:06:22;;;;;;;11.60;3.50;;;11.70;99.90;;;;;;4899798;29;20520;-81
2023/06/01 07:08:48;;;;;;;10.60;3.72;;;11.70;99.90;;;;;;4899456;29;20497;-81
2023/06/01 07:11:14;;;;;;;8.82;3.70;;;11.80;99.90;;;;;;4900508;29;20057;-81
2023/06/01 07:13:39;;;;;;;10.60;3.70;;;12.10;99.90;;;;;;4898717;29;20055;-81
2023/06/01 07:16:05;;;;;;;11.25;4.28;;;12.20;99.90;;;;;;4899705;29;20044;-81
2023/06/01 07:18:31;;;;;;;12.18;3.78;;;11.80;99.90;;;;;;4899720;29;20491;-80
2023/06/01 07:20:57;;;;;;;10.93;3.80;;;12.80;99.90;;;;;;4898601;29;20180;-81
2023/06/01 07:23:23;;;;;;;12.50;3.35;;;11.80;99.90;;;;;;4898925;29;20055;-81
2023/06/01 07:25:49;;;;;;;11.38;3.42;;;11.90;99.90;;;;;;4899541;29;20057;-81
2023/06/01 07:28:15;;;;;;;10.73;3.40;;;12.00;99.90;;;;;;4898546;29;20052;-80
2023/06/01 07:30:41;;;;;;;8.02;3.10;;;12.00;99.90;;;;;;4899641;29;20056;-81
2023/06/01 07:33:07;;;;;;;10.05;3.50;;;12.10;99.90;;;;;;4899935;29;20058;-81
2023/06/01 07:35:33;;;;;;;10.32;3.10;;;12.10;99.90;;;;;;4899537;29;20083;-81
2023/06/01 07:38:04;;;;;;;10.25;2.83;;;12.10;99.90;;;;;;4899161;29;20084;-81
2023/06/01 07:40:33;;;;;;;9.13;3.33;;;12.10;99.90;;;;;;4899530;29;20040;-81
2023/06/01 07:42:58;;;;;;;8.70;3.20;;;12.10;99.90;;;;;;4899214;29;20100;-81
2023/06/01 07:45:24;;;;;;;9.25;2.78;;;12.70;99.90;;;;;;4900364;29;20040;-81
2023/06/01 07:47:53;;;;;;;7.88;2.47;;;13.20;99.90;;;;;;4898127;29;20044;-81
2023/06/01 07:50:19;;;;;;;6.50;2.22;;;12.30;99.90;;;;;;4898670;29;20048;-81
2023/06/01 07:52:45;;;;;;;6.85;2.38;;;13.50;99.90;;;;;;4898704;29;20063;-81
2023/06/01 07:55:11;;;;;;;8.07;2.38;;;13.30;99.90;;;;;;4897923;29;20055;-81
2023/06/01 07:57:36;;;;;;;8.23;2.42;;;13.50;99.90;;;;;;4900408;29;20443;-81
2023/06/01 08:00:11;;;;;;;7.70;2.60;;;12.40;99.90;;;;;;4898901;29;20041;-81
2023/06/01 08:02:36;;;;;;;8.60;2.65;;;12.50;99.90;;;;;;4899445;29;20045;-81
2023/06/01 08:05:02;;;;;;;8.23;2.50;;;12.50;99.90;;;;;;4898979;29;20060;-81
2023/06/01 08:07:29;;;;;;;6.43;2.28;;;12.50;99.90;;;;;;4899943;29;20045;-81
2023/06/01 08:09:57;;;;;;;6.55;2.47;;;13.40;99.90;;;;;;4899316;29;20112;-81
2023/06/01 08:12:23;;;;;;;6.63;2.28;;;12.60;99.90;;;;;;4899777;29;20056;-81
2023/06/01 08:14:48;;;;;;;8.20;2.60;;;12.60;99.90;;;;;;4900080;29;20120;-81
2023/06/01 08:17:14;;;;;;;8.55;2.50;;;12.60;99.90;;;;;;4899027;29;20045;-81
2023/06/01 08:19:42;;;;;;;8.90;2.70;;;12.70;99.90;;;;;;4898586;29;20049;-81
2023/06/01 08:22:07;;;;;;;7.40;2.50;;;12.90;99.90;;;;;;4898144;29;20100;-81
2023/06/01 08:24:34;;;;;;;9.35;2.47;;;13.10;99.90;;;;;;4899045;29;20049;-81
2023/06/01 08:27:05;;;;;;;7.00;1.95;;;14.00;99.90;;;;;;4899814;29;20085;-81
2023/06/01 08:29:31;;;;;;;7.28;2.20;;;13.00;99.90;;;;;;4897262;29;20045;-81
2023/06/01 08:31:59;;;;;;;5.68;2.00;;;13.60;99.90;;;;;;4899517;29;20101;-81
2023/06/01 08:34:25;;;;;;;5.60;1.92;;;12.90;99.90;;;;;;4899217;29;20148;-81
2023/06/01 08:36:50;;;;;;;7.63;2.30;;;13.70;99.90;;;;;;4898898;29;20068;-81
2023/06/01 08:39:34;;;;;;;6.57;2.05;;;13.30;99.90;;;;;;4898946;29;20060;-81
2023/06/01 08:42:06;;;;;;;;;;;12.90;99.90;;;;;;4899318;29;20059;-81
2023/06/01 08:44:42;;;;;;;8.10;2.40;;;13.00;99.90;;;;;;4898729;29;19930;-81
2023/06/01 08:47:08;;;;;;;8.45;2.55;;;13.00;99.90;;;;;;4899171;29;20131;-81
2023/06/01 08:49:36;;;;;;;8.18;2.60;;;13.00;99.90;;;;;;4899149;29;20409;-81
2023/06/01 08:52:11;;;;;;;9.88;2.78;;;13.30;99.90;;;;;;4898758;29;20040;-81
2023/06/01 08:54:37;;;;;;;8.23;2.92;;;12.80;99.90;;;;;;4898027;29;20052;-82
2023/06/01 08:57:07;;;;;;;10.60;2.80;;;12.90;99.90;;;;;;4897852;29;20057;-81
2023/06/01 08:59:35;;;;;;;8.27;2.70;;;12.90;99.90;;;;;;4897991;29;20084;-81
2023/06/01 09:02:00;;;;;;;8.30;2.67;;;13.50;99.90;;;;;;4899418;29;20049;-81
2023/06/01 09:04:26;;;;;;;7.10;2.10;;;13.30;99.90;;;;;;4907814;29;20075;-81
2023/06/01 09:06:52;;;;;;;7.97;2.30;;;13.50;99.90;;;;;;4902616;29;20366;-81
2023/06/01 09:09:18;;;;;;;8.35;2.10;;;13.60;99.90;;;;;;4898079;29;20089;-81
2023/06/01 09:11:44;;;;;;;5.07;1.80;;;14.40;99.90;;;;;;4896970;29;20048;-81
2023/06/01 09:14:24;;;;;;;5.90;1.80;;;14.60;99.90;;;;;;4897495;29;20071;-81
2023/06/01 09:16:51;;;;;;;6.90;2.03;;;13.60;99.90;;;;;;4897851;29;20144;-82
2023/06/01 09:19:20;;;;;;;7.25;2.10;;;13.60;99.90;;;;;;4896607;29;20064;-82
2023/06/01 09:21:59;;;;;;;5.22;1.90;;;14.10;99.90;;;;;;4897407;29;20049;-82
2023/06/01 09:24:25;;;;;;;8.38;2.17;;;14.40;99.90;;;;;;4898404;29;20064;-82
2023/06/01 09:26:58;;;;;;;7.15;2.35;;;13.40;99.90;;;;;;4896758;29;20515;-81
2023/06/01 09:29:23;;;;;;;5.53;1.90;;;13.30;99.90;;;;;;4897408;29;20489;-82
2023/06/01 09:31:49;;;;;;;7.38;2.13;;;13.80;99.90;;;;;;4898681;29;20087;-81
2023/06/01 09:34:19;;;;;;;6.95;2.03;;;13.40;99.90;;;;;;4897586;29;20045;-82
2023/06/01 09:36:53;;;;;;;6.95;2.38;;;14.20;99.90;;;;;;4897087;29;20045;-81
2023/06/01 09:39:22;;;;;;;8.02;2.38;;;13.40;99.90;;;;;;4897828;29;20052;-81
2023/06/01 09:41:48;;;;;;;8.55;2.30;;;13.80;99.90;;;;;;4897594;29;20043;-81
2023/06/01 09:44:21;;;;;;;7.85;2.22;;;13.30;99.90;;;;;;4896803;29;20493;-81
2023/06/01 09:47:10;;;;;;;6.60;2.28;;;13.30;99.90;;;;;;4896590;29;20060;-82
2023/06/01 09:49:41;;;;;;;8.73;2.38;;;13.40;99.90;;;;;;4898323;29;20052;-82
2023/06/01 09:52:07;;;;;;;7.22;2.30;;;13.50;99.90;;;;;;4898056;29;20108;-82
2023/06/01 09:54:50;;;;;;;7.75;2.20;;;14.10;99.90;;;;;;4896034;29;20469;-81
2023/06/01 09:57:26;;;;;;;7.88;2.45;;;13.80;99.90;;;;;;4897958;29;20072;-81
2023/06/01 09:59:51;;;;;;;9.15;2.72;;;13.60;99.90;;;;;;4897276;29;20389;-81
2023/06/01 10:02:22;;;;;;;7.28;2.40;;;13.70;99.90;;;;;;4895723;29;20048;-81
2023/06/01 10:04:53;;;;;;;7.72;2.55;;;13.40;99.90;;;;;;4896980;29;20167;-81
2023/06/01 10:07:20;;;;;;;6.45;2.25;;;13.80;99.90;;;;;;4897862;29;20041;-81
2023/06/01 10:09:57;;;;;;;7.13;2.30;;;14.50;99.90;;;;;;4897055;29;20055;-81
2023/06/01 10:12:24;;;;;;;6.75;2.25;;;13.70;99.90;;;;;;4895702;29;20071;-81
2023/06/01 10:14:50;;;;;;;7.10;2.08;;;13.80;99.90;;;;;;4896557;29;20057;-81
2023/06/01 10:17:18;;;;;;;7.60;2.25;;;14.50;99.90;;;;;;4897273;29;20103;-82
2023/06/01 10:19:45;;;;;;;7.55;2.58;;;13.80;99.90;;;;;;4897907;29;20044;-81
2023/06/01 10:22:11;;;;;;;5.97;2.15;;;14.10;99.90;;;;;;4895719;29;20049;-81
2023/06/01 10:24:41;;;;;;;9.55;2.42;;;14.60;99.90;;;;;;4897714;29;20068;-82
2023/06/01 10:27:14;;;;;;;9.77;2.58;;;13.90;99.90;;;;;;4897326;29;20405;-81
2023/06/01 10:29:41;;;;;;;8.35;2.65;;;13.50;99.90;;;;;;4897259;29;20089;-81
2023/06/01 10:32:48;;;;;;;8.52;2.45;;;13.60;99.90;;;;;;4896083;29;20502;-81
2023/06/01 10:35:26;;;;;;;9.40;3.00;;;13.70;99.90;;;;;;4897472;29;20137;-82
2023/06/01 10:38:12;;;;;;;9.52;3.08;;;14.10;99.90;;;;;;4895466;29;20140;-82
2023/06/01 10:40:38;;;;;;;9.10;2.88;;;13.50;99.90;;;;;;4897800;29;20103;-82
2023/06/01 10:43:04;;;;;;;8.70;3.10;;;13.50;99.90;;;;;;4896779;29;20084;-82
2023/06/01 10:45:40;;;;;;;9.98;2.78;;;13.60;99.90;;;;;;5103242;23;20068;-81
2023/06/01 10:48:10;;;;;;;11.88;3.20;;;14.00;99.90;;;;;;4896295;29;20049;-81
2023/06/01 10:50:37;;;;;;;10.88;3.58;;;13.40;99.90;;;;;;4896014;29;20053;-81
2023/06/01 10:53:25;;;;;;;12.27;3.90;;;13.40;99.90;;;;;;4896202;29;20052;-81
2023/06/01 10:56:22;;;;;;;11.50;3.90;;;13.30;99.90;;;;;;4897205;29;20064;-81
2023/06/01 10:59:07;;;;;;;10.40;3.60;;;13.30;99.90;;;;;;4896823;29;20049;-82
2023/06/01 11:01:41;;;;;;;11.65;3.72;;;13.40;99.90;;;;;;4896288;29;20072;-81
2023/06/01 11:04:07;;;;;;;14.07;4.32;;;13.60;99.90;;;;;;4895511;29;20057;-81
2023/06/01 11:06:39;;;;;;;12.48;4.20;;;13.90;99.90;;;;;;4897584;29;20044;-81
2023/06/01 11:09:07;;;;;;;14.70;4.20;;;14.10;99.90;;;;;;4897628;29;20053;-81
2023/06/01 11:11:51;;;;;;;12.80;4.30;;;13.30;99.90;;;;;;4895576;29;20063;-82
2023/06/01 11:14:18;;;;;;;;;;;13.90;99.90;;;;;;4896218;29;20059;-82
2023/06/01 11:16:44;;;;;;;10.88;3.90;;;14.00;99.90;;;;;;4897548;29;19923;-82
2023/06/01 11:19:10;;;;;;;11.70;4.90;;;14.20;99.90;;;;;;4896447;29;20076;-81
2023/06/01 11:21:43;;;;;;;10.80;4.20;;;13.40;99.90;;;;;;4896071;29;20504;-81
2023/06/01 11:24:10;;;;;;;11.13;3.90;;;13.50;99.90;;;;;;4900034;29;20374;-81
2023/06/01 11:26:45;;;;;;;13.85;4.20;;;13.60;99.90;;;;;;4898962;29;20056;-81
2023/06/01 11:29:15;;;;;;;10.27;4.15;;;13.60;99.90;;;;;;4900691;29;20136;-81
2023/06/01 11:31:45;;;;;;;14.20;4.38;;;13.70;99.90;;;;;;4899657;29;20481;-81
2023/06/01 11:34:15;;;;;;;10.30;3.83;;;13.70;99.90;;;;;;4899782;29;20049;-81
2023/06/01 11:36:47;;;;;;;11.25;3.83;;;13.70;99.90;;;;;;4900769;29;20053;-82
2023/06/01 11:39:23;;;;;;;9.32;3.60;;;13.80;99.90;;;;;;4900460;29;20096;-81
2023/06/01 11:42:05;;;;;;;10.15;3.50;;;13.90;99.90;;;;;;4900317;29;20140;-81
2023/06/01 11:44:31;;;;;;;9.27;3.83;;;13.90;99.90;;;;;;4899279;29;20036;-82
2023/06/01 11:46:58;;;;;;;12.65;4.03;;;14.00;99.90;;;;;;4898465;29;20088;-82
2023/06/01 11:49:25;;;;;;;11.52;3.40;;;14.00;99.90;;;;;;4900282;29;20032;-82
2023/06/01 11:51:51;;;;;;;10.45;3.47;;;14.20;99.90;;;;;;4899466;29;20062;-82
2023/06/01 11:54:22;;;;;;;8.70;3.33;;;14.20;99.90;;;;;;4897715;29;20135;-82
2023/06/01 11:56:48;;;;;;;16.48;3.72;;;14.30;99.90;;;;;;4898849;29;20055;-81
2023/06/01 11:59:13;;;;;;;11.02;4.00;;;14.40;99.90;;;;;;4898477;29;20049;-82
2023/06/01 12:01:44;;;;;;;14.05;4.03;;;15.00;99.90;;;;;;4899733;29;20068;-81
2023/06/01 12:04:13;;;;;;;13.07;3.83;;;15.10;99.90;;;;;;4910086;29;20085;-81
2023/06/01 12:06:39;;;;;;;10.65;3.78;;;14.60;99.90;;;;;;4918732;29;20076;-81
2023/06/01 12:09:06;;;;;;;11.15;3.55;;;14.70;99.90;;;;;;4898233;29;20052;-81
2023/06/01 12:11:32;;;;;;;11.15;3.50;;;14.70;99.90;;;;;;4899018;29;20036;-81
2023/06/01 12:13:59;;;;;;;11.35;3.70;;;14.80;99.90;;;;;;4900042;29;20041;-81
2023/06/01 12:16:28;;;;;;;10.50;3.20;;;15.70;99.90;;;;;;4898975;29;20045;-81
2023/06/01 12:18:54;;;;;;;12.40;3.75;;;15.30;99.90;;;;;;4898678;29;20135;-82
2023/06/01 12:21:20;;;;;;;12.68;4.40;;;15.60;99.90;;;;;;4899357;29;20041;-81
2023/06/01 12:23:52;;;;;;;10.38;3.38;;;15.00;99.90;;;;;;4899278;29;20049;-81
2023/06/01 12:26:18;;;;;;;10.65;3.60;;;15.10;99.90;;;;;;4898094;29;20434;-81
2023/06/01 12:28:52;;;;;;;10.40;3.40;;;15.40;99.90;;;;;;4897881;29;20056;-81
2023/06/01 12:31:19;;;;;;;10.45;3.20;;;15.20;99.90;;;;;;4898173;29;20076;-81
2023/06/01 12:33:45;;;;;;;11.95;3.70;;;15.30;99.90;;;;;;4897595;29;20051;-82
2023/06/01 12:36:28;;;;;;;10.40;3.30;;;15.30;99.90;;;;;;4897175;29;20438;-81
2023/06/01 12:38:54;;;;;;;11.35;3.53;;;15.30;99.90;;;;;;4899755;29;20127;-81
2023/06/01 12:41:21;;;;;;;11.73;4.00;;;15.30;99.90;;;;;;4899168;29;20135;-82
2023/06/01 12:43:50;;;;;;;10.85;3.92;;;15.30;99.90;;;;;;4905427;23;20057;-81
2023/06/01 12:46:23;;;;;;;11.48;3.70;;;15.40;99.90;;;;;;4897764;29;20048;-81